Time;durP1;ratioP1;P1;durP2;ratioP2;P2;SDS_P1;SDS_P2;PMS_P1;PMS_P2;Temp;Humidity;BMP_temperature;BMP_pressure;BME280_temperature;BME280_humidity;BME280_pressure;Samples;Min_cycle;Max_cycle;Signal;HPM_P1;HPM_P2
2023/05/04 00:00:54;;;;;;;4.45;1.98;;;;;;;12.29;67.44;99706.88;5004895;28;20021;-88
2023/05/04 00:03:20;;;;;;;3.22;1.83;;;;;;;12.24;68.25;99705.00;5021120;28;20040;-88
2023/05/04 00:05:46;;;;;;;7.85;2.20;;;;;;;12.15;67.31;99711.22;5037916;28;20103;-88
2023/05/04 00:08:14;;;;;;;3.95;2.25;;;;;;;12.01;67.85;99692.84;5020697;28;20021;-87
2023/05/04 00:10:40;;;;;;;2.95;1.80;;;;;;;11.96;67.69;99705.53;5005464;28;20029;-87
2023/05/04 00:13:06;;;;;;;2.83;2.00;;;;;;;11.92;66.13;99716.84;5038476;28;20029;-87
2023/05/04 00:15:32;;;;;;;4.40;2.53;;;;;;;11.95;67.99;99717.41;5021219;28;20040;-86
2023/05/04 00:17:58;;;;;;;4.80;2.13;;;;;;;12.02;66.37;99686.38;5005423;28;20075;-89
2023/05/04 00:20:24;;;;;;;2.42;1.70;;;;;;;11.86;68.42;99699.00;5020038;28;20032;-88
2023/05/04 00:22:49;;;;;;;3.00;1.77;;;;;;;11.70;68.55;99697.38;5005149;28;20025;-88
2023/05/04 00:25:17;;;;;;;3.20;2.03;;;;;;;11.64;69.48;99703.84;5020707;28;20024;-88
2023/05/04 00:27:44;;;;;;;6.82;2.17;;;;;;;11.67;70.08;99711.41;5021946;28;20033;-87
2023/05/04 00:30:10;;;;;;;3.00;1.67;;;;;;;11.64;70.18;99714.63;5020679;28;20048;-87
2023/05/04 00:32:37;;;;;;;4.05;2.20;;;;;;;11.70;69.47;99710.88;5021412;28;20039;-88
2023/05/04 00:35:04;;;;;;;3.25;1.92;;;;;;;11.54;69.43;99696.56;5055106;28;20041;-87
2023/05/04 00:37:32;;;;;;;3.60;1.83;;;;;;;11.64;69.53;99683.09;5021182;28;20032;-88
2023/05/04 00:39:58;;;;;;;5.38;2.50;;;;;;;11.55;69.50;99667.69;5034379;28;20703;-88
2023/05/04 00:42:25;;;;;;;3.08;2.22;;;;;;;11.63;68.81;99689.56;5004161;28;20029;-88
2023/05/04 00:44:50;;;;;;;5.40;2.10;;;;;;;11.45;71.08;99698.94;5005072;28;20047;-88
2023/05/04 00:47:18;;;;;;;4.00;2.10;;;;;;;11.50;70.70;99696.28;4991634;28;20468;-87
2023/05/04 00:49:44;;;;;;;2.20;1.70;;;;;;;11.60;68.97;99702.75;5002347;28;20037;-88
2023/05/04 00:52:13;;;;;;;3.78;1.95;;;;;;;11.49;69.62;99689.25;5001357;28;20026;-88
2023/05/04 00:54:39;;;;;;;2.08;1.70;;;;;;;11.52;68.79;99683.34;4984279;28;20029;-88
2023/05/04 00:57:05;;;;;;;3.95;2.10;;;;;;;11.55;68.11;99675.78;5001759;28;20025;-87
2023/05/04 00:59:33;;;;;;;6.15;2.00;;;;;;;11.48;68.30;99676.84;5004363;28;20025;-87
2023/05/04 01:01:59;;;;;;;6.95;2.05;;;;;;;11.57;69.34;99666.34;5005508;28;20052;-88
2023/05/04 01:04:25;;;;;;;3.63;2.15;;;;;;;11.58;69.50;99667.97;5019339;28;20494;-88
2023/05/04 01:07:31;;;;;;;3.15;1.92;;;;;;;11.56;68.16;99655.81;4969881;28;20022;-88
2023/05/04 01:10:17;;;;;;;3.17;1.77;;;;;;;11.66;67.63;99666.63;4973999;28;20120;-89
2023/05/04 01:12:46;;;;;;;3.70;1.80;;;;;;;11.60;66.78;99655.03;4990055;28;20489;-87
2023/05/04 01:15:12;;;;;;;2.60;1.90;;;;;;;11.57;68.79;99654.75;4968439;28;20034;-88
2023/05/04 01:17:38;;;;;;;3.33;1.85;;;;;;;11.60;68.16;99656.91;5004381;28;20492;-87
2023/05/04 01:20:06;;;;;;;5.93;2.20;;;;;;;11.65;70.30;99665.00;5007772;28;20049;-88
2023/05/04 01:22:33;;;;;;;6.07;2.35;;;;;;;11.50;71.54;99668.50;4984070;28;20097;-88
2023/05/04 01:24:59;;;;;;;3.10;1.95;;;;;;;11.57;72.46;99665.53;4984283;28;20038;-88
2023/05/04 01:27:35;;;;;;;3.80;2.40;;;;;;;11.50;70.76;99646.94;4969540;28;20033;-88
2023/05/04 01:30:32;;;;;;;2.92;1.83;;;;;;;11.39;70.13;99651.47;4979426;28;20042;-88
2023/05/04 01:33:00;;;;;;;5.68;1.98;;;;;;;11.35;70.66;99653.13;4956583;28;20050;-87
2023/05/04 01:35:26;;;;;;;6.40;2.10;;;;;;;11.34;70.54;99648.78;4980608;28;20043;-89
2023/05/04 01:37:52;;;;;;;5.82;2.05;;;;;;;11.36;69.52;99629.66;4949238;28;20030;-87
2023/05/04 01:40:18;;;;;;;2.28;1.90;;;;;;;11.35;70.77;99633.41;4957103;28;20037;-87
2023/05/04 01:42:45;;;;;;;2.95;1.95;;;;;;;11.34;70.06;99627.22;5038593;28;20041;-87
2023/05/04 01:45:11;;;;;;;4.60;1.90;;;;;;;11.25;70.61;99618.06;5023731;28;20037;-88
2023/05/04 01:47:37;;;;;;;3.60;2.10;;;;;;;11.15;70.75;99612.63;5004586;28;20041;-87
2023/05/04 01:50:04;;;;;;;4.35;1.70;;;;;;;11.19;70.95;99608.34;5022298;28;20041;-87
2023/05/04 01:52:31;;;;;;;2.50;1.90;;;;;;;11.24;70.51;99605.63;5040355;28;20036;-87
2023/05/04 01:54:57;;;;;;;2.65;1.60;;;;;;;11.16;69.14;99587.28;5011903;28;20068;-88
2023/05/04 01:57:24;;;;;;;4.32;2.10;;;;;;;11.05;69.12;99592.66;5010455;28;20149;-88
2023/05/04 01:59:50;;;;;;;4.28;2.20;;;;;;;10.99;70.55;99599.09;5009037;28;20037;-88
2023/05/04 02:02:16;;;;;;;4.47;2.25;;;;;;;11.01;69.92;99594.25;5015197;28;20090;-88
2023/05/04 02:04:42;;;;;;;5.93;2.33;;;;;;;11.20;70.34;99599.97;5023917;28;20484;-88
2023/05/04 02:07:09;;;;;;;3.03;2.22;;;;;;;11.33;71.21;99593.25;5046296;28;20055;-87
2023/05/04 02:09:37;;;;;;;3.00;2.15;;;;;;;11.31;72.25;99596.22;5015205;28;20115;-88
2023/05/04 02:12:03;;;;;;;3.40;2.33;;;;;;;11.13;72.93;99588.63;5027006;28;20025;-88
2023/05/04 02:14:29;;;;;;;4.45;2.30;;;;;;;10.98;72.64;99569.72;5007135;28;20526;-88
2023/05/04 02:16:54;;;;;;;3.65;2.00;;;;;;;10.91;72.65;99561.91;5023595;28;20032;-88
2023/05/04 02:19:20;;;;;;;4.47;2.05;;;;;;;10.90;72.68;99585.34;5006247;28;20060;-88
2023/05/04 02:21:47;;;;;;;4.40;1.92;;;;;;;10.81;71.77;99565.41;5005788;28;20025;-87
2023/05/04 02:24:13;;;;;;;3.13;2.20;;;;;;;10.89;72.63;99564.88;5021605;28;20108;-87
2023/05/04 02:26:41;;;;;;;2.90;2.10;;;;;;;10.96;71.06;99556.53;5026567;28;20036;-88
2023/05/04 02:29:07;;;;;;;6.50;2.15;;;;;;;11.12;70.83;99560.06;4986982;28;20049;-88
2023/05/04 02:31:33;;;;;;;3.40;2.17;;;;;;;11.28;71.15;99569.78;5018948;28;20029;-88
2023/05/04 02:33:59;;;;;;;3.50;1.92;;;;;;;11.23;70.65;99552.81;5007444;28;20105;-89
2023/05/04 02:36:25;;;;;;;3.35;2.03;;;;;;;11.20;71.25;99567.63;4987243;28;20107;-88
2023/05/04 02:38:53;;;;;;;4.05;2.17;;;;;;;11.16;71.52;99563.84;5020010;28;20017;-88
2023/05/04 02:41:19;;;;;;;3.67;1.90;;;;;;;11.19;70.31;99566.00;5002687;28;20490;-88
2023/05/04 02:43:45;;;;;;;3.92;2.30;;;;;;;11.32;71.07;99570.88;5002340;28;20045;-88
2023/05/04 02:46:10;;;;;;;6.03;2.17;;;;;;;11.43;70.36;99584.34;4987292;28;20030;-87
2023/05/04 02:48:37;;;;;;;3.13;1.83;;;;;;;11.41;69.60;99576.53;4987097;28;20100;-87
2023/05/04 02:51:04;;;;;;;3.80;2.13;;;;;;;11.32;71.20;99580.84;4986229;28;20029;-87
2023/05/04 02:53:30;;;;;;;4.85;2.33;;;;;;;11.33;70.76;99575.19;5017907;28;20040;-88
2023/05/04 02:55:55;;;;;;;3.08;2.10;;;;;;;11.24;71.63;99579.47;4986643;28;20029;-88
2023/05/04 02:58:22;;;;;;;4.05;2.38;;;;;;;11.12;71.46;99568.97;4986761;28;20009;-88
2023/05/04 03:00:54;;;;;;;6.60;2.20;;;;;;;11.36;71.42;99581.13;4987207;28;20036;-88
2023/05/04 03:03:21;;;;;;;3.40;1.92;;;;;;;11.31;71.07;99563.88;4985885;28;20037;-88
2023/05/04 03:05:46;;;;;;;3.47;2.13;;;;;;;11.44;70.02;99583.28;5018749;28;20038;-88
2023/05/04 03:08:12;;;;;;;4.78;2.15;;;;;;;11.37;70.52;99588.13;4986481;28;20116;-88
2023/05/04 03:10:37;;;;;;;3.65;2.28;;;;;;;11.31;71.18;99580.03;4986883;28;20026;-87
2023/05/04 03:13:04;;;;;;;7.43;2.55;;;;;;;11.29;71.21;99571.41;4985244;28;20029;-88
2023/05/04 03:15:53;;;;;;;5.03;1.92;;;;;;;11.43;70.14;99590.53;5010228;28;20048;-86
2023/05/04 03:18:19;;;;;;;3.53;2.00;;;;;;;11.48;69.56;99597.84;4973482;28;20147;-87
2023/05/04 03:20:45;;;;;;;3.63;2.25;;;;;;;11.39;69.47;99581.38;4956817;28;20034;-87
2023/05/04 03:23:11;;;;;;;3.97;2.55;;;;;;;11.32;68.85;99584.34;4971297;28;20136;-86
2023/05/04 03:25:37;;;;;;;4.00;2.10;;;;;;;11.47;68.42;99577.34;4946429;28;20030;-86
2023/05/04 03:28:02;;;;;;;4.10;2.28;;;;;;;11.43;69.41;99578.97;4961980;28;20038;-86
2023/05/04 03:30:28;;;;;;;5.25;2.20;;;;;;;11.45;68.42;99590.28;4939620;28;20057;-86
2023/05/04 03:32:54;;;;;;;6.88;2.40;;;;;;;11.41;70.01;99583.81;4952734;29;20031;-88
2023/05/04 03:35:20;;;;;;;4.00;2.80;;;;;;;11.36;70.42;99581.94;4952966;28;20039;-87
2023/05/04 03:37:47;;;;;;;4.40;2.30;;;;;;;11.39;70.22;99589.47;4944037;28;20050;-88
2023/05/04 03:40:13;;;;;;;3.40;2.25;;;;;;;11.49;70.17;99589.47;4960147;28;20549;-87
2023/05/04 03:42:40;;;;;;;3.35;2.28;;;;;;;11.47;71.26;99580.84;4981903;28;20501;-87
2023/05/04 03:45:08;;;;;;;4.00;2.40;;;;;;;11.35;71.61;99587.56;4969459;28;20045;-89
2023/05/04 03:47:35;;;;;;;3.58;2.63;;;;;;;11.18;72.22;99595.91;4984193;28;20054;-89
2023/05/04 03:50:02;;;;;;;4.82;2.63;;;;;;;11.18;71.80;99602.09;4986424;28;20041;-90
2023/05/04 03:52:30;;;;;;;5.30;2.70;;;;;;;11.11;72.89;99599.69;5003805;28;20022;-90
2023/05/04 03:54:57;;;;;;;5.65;2.95;;;;;;;10.97;73.08;99585.09;5012484;28;20081;-90
2023/05/04 03:57:23;;;;;;;7.45;3.17;;;;;;;10.94;73.29;99606.38;5010194;28;20038;-90
2023/05/04 03:59:50;;;;;;;6.60;4.53;;;;;;;10.86;74.75;99603.13;5011961;28;20034;-90
2023/05/04 04:02:16;;;;;;;6.43;3.30;;;;;;;10.87;75.64;99606.59;4990230;28;20033;-91
2023/05/04 04:04:42;;;;;;;5.05;3.08;;;;;;;10.90;75.96;99609.59;4978084;28;20026;-90
2023/05/04 04:07:08;;;;;;;6.18;2.90;;;;;;;10.91;75.82;99600.44;5011484;28;20034;-90
2023/05/04 04:09:35;;;;;;;6.45;3.03;;;;;;;11.11;73.85;99607.75;5018327;28;20037;-88
2023/05/04 04:12:02;;;;;;;4.32;2.85;;;;;;;11.36;72.86;99633.16;5019879;28;20584;-91
2023/05/04 04:14:28;;;;;;;4.20;2.90;;;;;;;11.57;72.12;99650.16;4982960;28;20113;-90
2023/05/04 04:16:54;;;;;;;5.82;3.53;;;;;;;11.61;71.90;99642.34;5003127;28;20033;-90
2023/05/04 04:19:19;;;;;;;6.45;3.38;;;;;;;11.65;70.74;99640.75;5000227;28;20064;-90
2023/05/04 04:21:45;;;;;;;5.35;3.20;;;;;;;11.63;71.61;99645.59;5001953;28;20032;-90
2023/05/04 04:24:12;;;;;;;15.20;8.05;;;;;;;11.53;72.68;99646.38;4996703;28;20034;-91
2023/05/04 04:26:38;;;;;;;11.60;4.57;;;;;;;11.45;72.14;99653.09;5002946;28;20034;-90
2023/05/04 04:29:06;;;;;;;6.97;3.20;;;;;;;11.44;71.74;99645.31;4984943;28;20057;-90
2023/05/04 04:31:34;;;;;;;4.13;2.75;;;;;;;11.51;70.94;99651.22;4974461;28;20399;-88
2023/05/04 04:33:59;;;;;;;4.93;2.90;;;;;;;11.41;71.53;99646.63;4969457;28;20140;-89
2023/05/04 04:36:25;;;;;;;9.18;3.92;;;;;;;11.37;72.28;99642.03;4988530;28;20049;-88
2023/05/04 04:38:51;;;;;;;6.85;3.60;;;;;;;11.32;72.14;99638.25;4989586;28;20060;-88
2023/05/04 04:41:16;;;;;;;4.90;3.00;;;;;;;11.48;72.06;99638.31;4988971;28;20087;-89
2023/05/04 04:43:42;;;;;;;6.72;3.30;;;;;;;11.66;71.81;99655.81;4989092;28;20036;-88
2023/05/04 04:46:08;;;;;;;7.65;3.30;;;;;;;11.71;71.48;99653.94;5026493;28;20060;-88
2023/05/04 04:48:33;;;;;;;6.55;3.13;;;;;;;11.71;71.29;99653.16;4985450;28;20028;-89
2023/05/04 04:50:59;;;;;;;7.22;3.13;;;;;;;11.85;70.49;99648.00;4985672;28;20029;-89
2023/05/04 04:53:24;;;;;;;3.88;2.78;;;;;;;11.90;70.25;99648.84;4989651;28;20041;-86
2023/05/04 04:55:51;;;;;;;6.18;3.92;;;;;;;11.95;68.76;99652.63;4989143;28;20036;-87
2023/05/04 04:58:16;;;;;;;6.40;3.30;;;;;;;12.06;69.20;99659.66;4988127;28;20056;-88
2023/05/04 05:00:41;;;;;;;5.28;2.90;;;;;;;12.01;69.21;99665.84;5000040;28;20029;-87
2023/05/04 05:03:07;;;;;;;5.35;2.40;;;;;;;12.07;68.21;99658.56;4979686;28;20126;-88
2023/05/04 05:05:41;;;;;;;4.50;2.38;;;;;;;12.13;67.72;99666.38;4980507;28;20034;-89
2023/05/04 05:08:07;;;;;;;10.93;3.85;;;;;;;12.22;67.15;99644.25;4971026;28;20084;-88
2023/05/04 05:10:32;;;;;;;3.20;2.40;;;;;;;12.10;67.67;99649.94;4968930;28;20030;-88
2023/05/04 05:12:58;;;;;;;5.80;3.00;;;;;;;12.22;67.80;99642.38;4970485;28;20040;-90
2023/05/04 05:15:23;;;;;;;5.57;3.13;;;;;;;12.41;67.27;99639.06;4976365;28;20314;-93
2023/05/04 05:17:49;;;;;;;5.25;2.30;;;;;;;12.48;66.58;99631.50;4986318;28;20030;-93
2023/05/04 05:20:14;;;;;;;2.72;2.08;;;;;;;12.71;65.60;99647.09;4993659;28;20018;-93
2023/05/04 05:22:40;;;;;;;9.98;3.25;;;;;;;12.64;66.39;99643.09;4977653;28;20125;-96
2023/05/04 05:25:06;;;;;;;7.30;3.05;;;;;;;12.67;66.29;99634.41;4992390;28;20070;-94
2023/05/04 05:27:36;;;;;;;9.52;3.45;;;;;;;12.91;67.03;99642.72;4973506;28;20037;-90
2023/05/04 05:30:02;;;;;;;13.93;3.50;;;;;;;12.94;66.48;99637.53;4991803;28;20140;-90
2023/05/04 05:32:28;;;;;;;5.53;3.05;;;;;;;13.22;65.88;99647.94;4986441;28;20083;-92
2023/05/04 05:34:53;;;;;;;12.65;3.15;;;;;;;13.37;65.11;99647.09;4984484;28;20153;-92
2023/05/04 05:37:19;;;;;;;5.00;2.95;;;;;;;13.53;65.60;99646.72;4980401;28;20496;-94
2023/05/04 05:39:44;;;;;;;8.77;2.80;;;;;;;13.77;63.96;99654.09;4986327;28;20053;-91
2023/05/04 05:42:10;;;;;;;6.07;2.30;;;;;;;14.01;64.06;99647.94;4984057;28;20517;-91
2023/05/04 05:44:36;;;;;;;7.30;4.32;;;;;;;14.18;63.52;99648.34;5012646;28;20032;-93
2023/05/04 05:47:03;;;;;;;7.28;3.08;;;;;;;14.21;62.85;99642.34;4990107;28;20021;-94
2023/05/04 06:02:54;;;;;;;7.90;3.30;;;;;;;15.70;57.34;99654.88;5099872;27;1430382;-93
2023/05/04 06:05:20;;;;;;;3.72;2.63;;;;;;;15.77;56.51;99659.94;5106794;27;20576;-93
2023/05/04 06:07:45;;;;;;;4.95;3.05;;;;;;;15.72;56.19;99666.25;5077191;28;20044;-91
2023/05/04 06:10:11;;;;;;;13.07;3.97;;;;;;;15.75;57.87;99664.88;5103374;28;20103;-91
2023/05/04 06:12:40;;;;;;;4.45;2.78;;;;;;;15.92;56.50;99676.00;5102035;28;20019;-90
2023/05/04 06:15:08;;;;;;;12.63;3.05;;;;;;;16.00;56.76;99677.25;5102820;28;20047;-93
2023/05/04 06:17:35;;;;;;;4.38;2.55;;;;;;;15.90;56.27;99656.50;5122127;28;20024;-91
2023/05/04 06:20:01;;;;;;;8.70;4.53;;;;;;;15.93;56.83;99646.94;5096856;28;20031;-89
2023/05/04 06:22:30;;;;;;;8.48;3.15;;;;;;;16.02;56.04;99658.75;5097409;28;20027;-91
2023/05/04 06:24:59;;;;;;;10.10;2.97;;;;;;;16.16;55.30;99654.16;5120788;28;20043;-92
2023/05/04 06:27:27;;;;;;;6.30;2.40;;;;;;;16.12;55.15;99671.31;5101044;28;20023;-91
2023/05/04 06:29:53;;;;;;;8.65;3.38;;;;;;;15.74;55.69;99641.53;5102048;28;20499;-90
2023/05/04 06:32:18;;;;;;;5.28;3.15;;;;;;;15.81;55.67;99655.53;5117064;28;20023;-88
2023/05/04 06:34:48;;;;;;;4.60;2.35;;;;;;;16.00;54.27;99668.28;5101153;28;20048;-94
2023/05/04 06:37:17;;;;;;;3.97;2.65;;;;;;;15.74;54.82;99666.78;5106973;28;20112;-90
2023/05/04 06:39:42;;;;;;;4.50;3.08;;;;;;;15.59;55.58;99653.41;5095087;28;20030;-90
2023/05/04 06:42:09;;;;;;;6.97;2.70;;;;;;;15.73;55.79;99661.66;5091599;28;20040;-89
2023/05/04 06:44:40;;;;;;;4.43;3.10;;;;;;;16.08;56.48;99692.03;5092380;28;20031;-93
2023/05/04 06:47:06;;;;;;;4.05;3.00;;;;;;;16.03;55.10;99687.50;5129354;27;20031;-91
2023/05/04 06:49:35;;;;;;;6.80;3.00;;;;;;;15.75;55.24;99662.19;5080656;28;20496;-91
2023/05/04 06:52:10;;;;;;;5.88;2.55;;;;;;;15.77;54.92;99673.53;5099999;28;20083;-91
2023/05/04 06:54:36;;;;;;;3.97;2.25;;;;;;;15.57;54.48;99658.34;5084684;28;20091;-91
2023/05/04 06:57:02;;;;;;;7.20;2.85;;;;;;;15.72;54.80;99682.56;5097468;28;20024;-90
2023/05/04 06:59:32;;;;;;;5.28;3.63;;;;;;;15.74;54.93;99677.63;5078800;28;20023;-91
2023/05/04 07:01:58;;;;;;;5.75;2.90;;;;;;;15.78;53.95;99650.72;5091442;28;20047;-91
2023/05/04 07:04:25;;;;;;;7.05;3.20;;;;;;;16.03;54.47;99673.13;5084174;28;20071;-91
2023/05/04 07:06:52;;;;;;;5.18;3.15;;;;;;;16.20;54.42;99653.53;5073078;28;20034;-94
2023/05/04 07:09:19;;;;;;;4.43;2.85;;;;;;;16.59;52.76;99658.53;5049814;28;20031;-94
2023/05/04 07:11:47;;;;;;;5.57;3.28;;;;;;;16.81;52.48;99662.47;5096540;23;20063;-91
2023/05/04 07:14:14;;;;;;;16.38;10.13;;;;;;;17.09;51.80;99657.81;5020566;28;20025;-95
2023/05/04 07:16:41;;;;;;;4.97;3.25;;;;;;;17.31;51.72;99657.88;5017119;28;20029;-93
2023/05/04 07:19:09;;;;;;;6.60;2.42;;;;;;;17.36;51.03;99673.28;5018411;28;20020;-91
2023/05/04 07:21:35;;;;;;;8.95;3.38;;;;;;;17.53;50.54;99669.91;5006913;28;20025;-90
2023/05/04 07:24:00;;;;;;;3.97;2.60;;;;;;;17.58;50.06;99675.25;5032835;28;20032;-89
2023/05/04 07:26:26;;;;;;;5.32;3.05;;;;;;;17.84;49.94;99672.75;5008404;28;20048;-92
2023/05/04 07:28:59;;;;;;;4.57;2.80;;;;;;;18.14;48.55;99676.66;5016731;28;20040;-95
2023/05/04 07:43:26;;;;;;;6.22;4.05;;;;;;;18.95;46.40;99707.56;5020780;26;20058;-92
2023/05/04 07:45:52;;;;;;;3.20;2.15;;;;;;;18.84;45.81;99700.75;4988857;28;20034;-92
2023/05/04 07:48:18;;;;;;;7.10;3.65;;;;;;;18.87;45.93;99689.22;4974002;28;20084;-93
2023/05/04 07:50:51;;;;;;;5.25;2.72;;;;;;;18.87;45.72;99672.84;4973556;28;20136;-93
2023/05/04 07:53:20;;;;;;;6.63;2.50;;;;;;;19.03;46.14;99689.56;4976220;28;20434;-93
2023/05/04 07:55:46;;;;;;;4.00;2.63;;;;;;;19.06;46.54;99689.75;4979856;28;20034;-92
2023/05/04 07:58:14;;;;;;;3.67;2.75;;;;;;;19.08;45.72;99678.53;4990703;28;20034;-92
2023/05/04 08:00:57;;;;;;;;;;;;;;;;;;;;;
2023/05/04 08:03:50;;;;;;;4.18;2.60;;;;;;;19.34;45.15;99692.19;5002061;28;20073;-96
2023/05/04 08:06:17;;;;;;;4.50;2.80;;;;;;;19.23;45.44;99690.91;5006467;28;20471;-93
2023/05/04 08:08:48;;;;;;;5.28;2.80;;;;;;;19.32;45.20;99700.75;4987465;28;20041;-91
2023/05/04 08:11:16;;;;;;;6.07;3.40;;;;;;;19.13;45.74;99692.84;4973061;28;20034;-95
2023/05/04 08:13:43;;;;;;;5.40;3.00;;;;;;;19.40;46.03;99712.78;5007389;28;20034;-94
2023/05/04 08:16:20;;;;;;;3.53;2.65;;;;;;;19.23;44.43;99685.44;4974624;28;20041;-93
2023/05/04 08:18:46;;;;;;;4.57;2.88;;;;;;;19.47;44.45;99718.59;4979675;28;20487;-94
2023/05/04 08:21:13;;;;;;;6.25;2.70;;;;;;;19.31;45.10;99690.13;5009171;28;20034;-94
2023/05/04 08:23:49;;;;;;;;;;;;;;;;;;;;;
2023/05/04 08:26:38;;;;;;;3.25;2.30;;;;;;;18.96;44.66;99677.19;5003128;28;20025;-95
2023/05/04 08:29:09;;;;;;;5.70;2.97;;;;;;;18.93;46.12;99680.56;4975156;28;20044;-91
2023/05/04 08:31:34;;;;;;;7.32;2.50;;;;;;;18.56;47.33;99674.47;4986488;28;20053;-91
2023/05/04 08:34:00;;;;;;;3.30;2.30;;;;;;;18.71;46.18;99691.53;4969583;28;20037;-91
2023/05/04 08:36:26;;;;;;;8.85;3.40;;;;;;;18.55;46.80;99667.41;4996436;28;20036;-94
2023/05/04 08:38:52;;;;;;;5.80;3.17;;;;;;;18.73;45.42;99651.91;4969800;28;20036;-94
2023/05/04 08:41:22;;;;;;;7.78;3.60;;;;;;;19.18;44.63;99670.03;4973150;28;20033;-94
2023/05/04 08:44:24;;;;;;;;;;;;;;;;;;;;;
2023/05/04 08:46:52;;;;;;;5.22;2.90;;;;;;;19.58;43.88;99687.09;5008280;28;20462;-93
2023/05/04 08:49:19;;;;;;;3.75;2.92;;;;;;;19.85;43.26;99670.72;4983460;28;20033;-93
2023/05/04 08:51:45;;;;;;;4.05;2.80;;;;;;;20.03;41.81;99672.31;4994221;28;20021;-93
2023/05/04 08:54:13;;;;;;;7.65;4.82;;;;;;;20.28;41.65;99669.84;4995783;28;20045;-96
2023/05/04 08:56:46;;;;;;;4.55;2.58;;;;;;;20.26;42.18;99658.44;4976322;28;20026;-94
2023/05/04 08:59:26;;;;;;;4.50;2.70;;;;;;;20.25;41.95;99659.56;4990108;28;20071;-94
2023/05/04 09:01:53;;;;;;;4.10;2.60;;;;;;;19.23;43.75;99655.41;4955655;28;20026;-94
2023/05/04 09:04:19;;;;;;;6.20;5.00;;;;;;;18.98;45.37;99672.22;4952922;28;20049;-92
2023/05/04 09:06:48;;;;;;;4.55;3.03;;;;;;;18.89;46.06;99670.59;4956346;28;20038;-92
2023/05/04 09:09:14;;;;;;;10.48;4.25;;;;;;;19.32;45.41;99670.69;4972613;28;20041;-94
2023/05/04 09:11:40;;;;;;;7.55;3.08;;;;;;;19.34;43.96;99657.53;4975128;28;20137;-95
2023/05/04 09:14:11;;;;;;;4.03;2.90;;;;;;;19.88;44.04;99656.41;4963030;28;20075;-91
2023/05/04 09:16:37;;;;;;;4.38;3.03;;;;;;;20.47;42.76;99669.47;4961248;28;20061;-94
2023/05/04 09:19:03;;;;;;;4.53;3.17;;;;;;;20.62;42.36;99654.47;4961856;28;20038;-93
2023/05/04 09:21:37;;;;;;;7.93;3.47;;;;;;;20.70;42.10;99646.22;4949224;28;20030;-94
2023/05/04 09:24:06;;;;;;;5.10;3.13;;;;;;;21.01;40.75;99645.09;4961475;28;20428;-90
2023/05/04 09:26:32;;;;;;;8.18;2.65;;;;;;;21.12;40.83;99664.66;4992275;28;20085;-91
2023/05/04 09:29:12;;;;;;;6.13;2.50;;;;;;;20.90;40.18;99652.09;4949271;28;20078;-91
2023/05/04 09:31:50;;;;;;;4.40;2.67;;;;;;;20.83;41.27;99677.22;4970592;28;20022;-88
2023/05/04 09:34:25;;;;;;;8.15;5.10;;;;;;;20.29;41.71;99655.03;4998674;28;20022;-93
2023/05/04 09:37:21;;;;;;;8.23;5.25;;;;;;;20.28;42.95;99681.59;4981431;28;20029;-92
2023/05/04 09:42:36;;;;;;;6.10;4.47;;;;;;;20.27;42.25;99635.41;5473225;22;20058;-93
2023/05/04 09:45:12;;;;;;;8.05;3.70;;;;;;;20.50;42.63;99638.72;4990973;28;20112;-94
2023/05/04 09:51:54;;;;;;;8.55;3.30;;;;;;;20.62;42.47;99629.84;5082208;22;20538;-93
2023/05/04 09:54:23;;;;;;;5.40;3.45;;;;;;;20.85;40.81;99619.41;5025992;28;20042;-94
2023/05/04 09:56:58;;;;;;;5.43;3.22;;;;;;;20.86;40.88;99610.09;4977137;28;20026;-95
2023/05/04 09:59:34;;;;;;;5.97;3.03;;;;;;;21.64;39.48;99636.09;4997048;28;20034;-93
2023/05/04 10:04:57;;;;;;;3.90;2.55;;;;;;;21.54;38.95;99615.38;5452610;22;20057;-93
2023/05/04 10:07:26;;;;;;;3.85;2.50;;;;;;;21.65;39.03;99633.03;4978143;28;20046;-91
2023/05/04 10:09:52;;;;;;;5.70;3.38;;;;;;;21.25;40.03;99617.06;4919792;28;20039;-90
2023/05/04 10:12:18;;;;;;;13.55;3.25;;;;;;;21.28;40.49;99634.75;4913308;28;20175;-89
2023/05/04 10:14:46;;;;;;;6.88;3.88;;;;;;;21.03;40.79;99614.66;4928007;28;21925;-89
2023/05/04 10:17:23;;;;;;;5.45;2.85;;;;;;;21.01;40.73;99605.97;4911642;28;20097;-89
2023/05/04 10:20:16;;;;;;;4.55;3.30;;;;;;;20.73;41.85;99633.81;4943168;28;20024;-90
2023/05/04 10:23:00;;;;;;;4.70;3.50;;;;;;;20.76;41.96;99624.94;4946688;28;20043;-89
2023/05/04 10:25:50;;;;;;;8.95;3.25;;;;;;;20.92;42.38;99625.97;4940745;28;20031;-88
2023/05/04 10:28:15;;;;;;;4.20;3.20;;;;;;;20.74;42.25;99624.47;4958034;28;20600;-89
2023/05/04 10:30:41;;;;;;;4.70;3.13;;;;;;;20.85;42.18;99612.00;4947984;29;20031;-90
2023/05/04 10:33:06;;;;;;;4.47;3.15;;;;;;;20.94;42.44;99606.50;4917757;28;20064;-90
2023/05/04 10:35:36;;;;;;;4.88;3.15;;;;;;;20.88;41.93;99605.09;4938748;28;20039;-94
2023/05/04 10:38:05;;;;;;;3.35;2.75;;;;;;;21.03;41.59;99600.97;4949120;28;20038;-91
2023/05/04 10:40:36;;;;;;;3.90;2.72;;;;;;;20.70;41.82;99621.59;4981017;28;20077;-91
2023/05/04 10:43:01;;;;;;;3.58;2.58;;;;;;;20.82;42.11;99611.88;4992025;28;20034;-91
2023/05/04 10:45:53;;;;;;;5.45;2.53;;;;;;;21.06;41.89;99617.50;4986366;28;20168;-91
2023/05/04 10:48:18;;;;;;;4.72;2.78;;;;;;;20.77;42.97;99602.72;4956577;28;20038;-91
2023/05/04 10:50:48;;;;;;;5.85;2.78;;;;;;;20.99;42.42;99609.81;4978832;28;20030;-93
2023/05/04 10:53:15;;;;;;;3.30;3.00;;;;;;;20.84;43.55;99598.66;4956315;28;20045;-93
2023/05/04 10:55:50;;;;;;;7.05;3.05;;;;;;;20.60;44.96;99586.38;4982992;28;20037;-94
2023/05/04 10:58:18;;;;;;;6.72;3.00;;;;;;;20.46;43.98;99594.81;4960379;28;20034;-90
2023/05/04 11:00:45;;;;;;;4.88;3.10;;;;;;;20.13;45.39;99580.94;4978670;28;20029;-89
2023/05/04 11:03:11;;;;;;;6.22;3.88;;;;;;;19.98;45.66;99593.19;4971103;28;20037;-91
2023/05/04 11:05:43;;;;;;;4.75;3.00;;;;;;;19.85;46.89;99575.09;4984851;28;20555;-89
2023/05/04 11:08:23;;;;;;;7.78;4.00;;;;;;;20.21;46.44;99596.50;4961318;28;20030;-95
2023/05/04 11:11:02;;;;;;;8.00;2.92;;;;;;;19.86;46.94;99590.34;4973119;28;20506;-93
2023/05/04 11:13:32;;;;;;;4.53;3.03;;;;;;;19.87;47.48;99572.84;4971922;28;20042;-93
2023/05/04 11:16:00;;;;;;;4.47;2.95;;;;;;;19.86;46.22;99587.59;4971449;28;20177;-91
2023/05/04 11:18:30;;;;;;;7.88;3.33;;;;;;;19.71;47.72;99594.38;4971071;28;20034;-93
2023/05/04 11:20:56;;;;;;;5.68;3.00;;;;;;;19.67;47.56;99588.75;4972313;28;20038;-92
2023/05/04 11:23:27;;;;;;;6.80;3.10;;;;;;;19.82;47.32;99587.47;4971382;28;20094;-92
2023/05/04 11:28:57;;;;;;;4.60;2.90;;;;;;;19.99;46.64;99606.56;5016340;28;20009;-92
2023/05/04 11:31:25;;;;;;;5.00;3.00;;;;;;;19.81;46.46;99574.94;4977456;28;20045;-93
2023/05/04 11:33:53;;;;;;;4.10;3.05;;;;;;;19.96;46.77;99582.63;4976492;28;20094;-92
2023/05/04 11:36:19;;;;;;;4.85;2.97;;;;;;;19.81;47.09;99574.94;4981061;28;20029;-93
2023/05/04 11:38:46;;;;;;;7.90;3.42;;;;;;;19.77;48.59;99593.09;4970335;28;20030;-94
2023/05/04 11:41:11;;;;;;;3.47;2.67;;;;;;;19.93;48.42;99609.78;4998058;28;20045;-96
2023/05/04 11:44:11;;;;;;;4.35;2.95;;;;;;;19.67;48.39;99582.47;4983346;28;20121;-95
2023/05/04 11:47:07;;;;;;;5.90;2.90;;;;;;;19.95;48.07;99610.28;5015124;28;20030;-96
2023/05/04 11:49:42;;;;;;;4.53;2.80;;;;;;;19.73;47.99;99589.41;4975587;28;20050;-94
2023/05/04 11:52:08;;;;;;;3.90;2.63;;;;;;;19.57;48.59;99578.16;4935614;29;20050;-96
2023/05/04 11:54:36;;;;;;;4.43;3.00;;;;;;;19.88;48.10;99599.84;4951846;29;20501;-92
2023/05/04 11:57:04;;;;;;;5.65;2.92;;;;;;;19.75;47.65;99612.53;4936229;28;20108;-94
2023/05/04 11:59:30;;;;;;;4.10;2.80;;;;;;;19.34;49.03;99613.84;4943693;29;20027;-93
2023/05/04 12:01:57;;;;;;;3.60;2.50;;;;;;;19.28;49.08;99587.00;4994701;23;20050;-92
2023/05/04 12:04:23;;;;;;;6.38;2.75;;;;;;;19.61;48.47;99608.34;4986907;28;20115;-90
2023/05/04 12:06:56;;;;;;;6.25;3.28;;;;;;;19.59;48.63;99603.22;4985075;28;20029;-93
2023/05/04 12:09:33;;;;;;;4.00;2.63;;;;;;;19.45;48.28;99600.66;4961771;28;20030;-95
2023/05/04 12:12:31;;;;;;;4.15;2.70;;;;;;;19.43;48.81;99630.22;5009435;23;20112;-96
2023/05/04 12:14:58;;;;;;;3.45;2.70;;;;;;;19.26;49.11;99595.53;5449524;23;20451;-95
2023/05/04 12:17:23;;;;;;;5.45;2.50;;;;;;;19.17;49.28;99598.25;4980835;28;20095;-89
2023/05/04 12:19:53;;;;;;;4.07;2.42;;;;;;;19.01;49.55;99604.47;4974007;28;20026;-93
2023/05/04 12:22:32;;;;;;;4.43;2.83;;;;;;;19.07;49.20;99614.94;4984532;28;20034;-90